createdAt,value
2019-05-28T00:01:57.217Z,2.40
2019-05-28T00:04:28.804Z,1.90
2019-05-28T00:06:59.742Z,2.53
2019-05-28T00:09:31.118Z,2.23
2019-05-28T00:12:02.110Z,2.10
2019-05-28T00:14:33.619Z,2.40
2019-05-28T00:17:05.091Z,2.83
2019-05-28T00:19:36.036Z,2.23
2019-05-28T00:22:07.147Z,2.17
2019-05-28T00:24:38.122Z,2.73
2019-05-28T00:27:09.539Z,2.43
2019-05-28T00:29:40.501Z,2.60
2019-05-28T00:32:11.506Z,2.33
2019-05-28T00:34:43.037Z,2.90
2019-05-28T00:37:13.958Z,2.20
2019-05-28T00:39:45.286Z,2.67
2019-05-28T00:42:16.350Z,2.77
2019-05-28T00:44:47.364Z,2.40
2019-05-28T00:47:18.310Z,2.40
2019-05-28T00:49:49.801Z,2.47
2019-05-28T00:52:21.341Z,2.57
2019-05-28T00:54:52.818Z,2.37
2019-05-28T00:57:26.072Z,2.47
2019-05-28T00:59:57.486Z,2.23
2019-05-28T01:02:28.415Z,2.23
2019-05-28T01:04:59.393Z,2.80
2019-05-28T01:07:30.403Z,2.73
2019-05-28T01:10:01.329Z,2.83
2019-05-28T01:12:33.347Z,2.87
2019-05-28T01:15:04.981Z,2.07
2019-05-28T01:17:36.297Z,2.23
2019-05-28T01:20:07.796Z,2.90
2019-05-28T01:22:38.791Z,2.97
2019-05-28T01:25:09.817Z,2.23
2019-05-28T01:27:40.832Z,2.97
2019-05-28T01:30:12.605Z,3.30
2019-05-28T01:32:43.555Z,2.70
2019-05-28T01:35:14.584Z,3.07
2019-05-28T01:37:45.599Z,3.27
2019-05-28T01:40:17.194Z,2.63
2019-05-28T01:42:48.190Z,3.30
2019-05-28T01:45:19.275Z,3.57
2019-05-28T01:47:50.241Z,3.03
2019-05-28T01:50:21.752Z,2.83
2019-05-28T01:52:52.795Z,3.20
2019-05-28T01:55:23.809Z,2.57
2019-05-28T01:57:54.866Z,3.37
2019-05-28T02:00:26.266Z,2.40
2019-05-28T02:02:57.310Z,2.73
2019-05-28T02:05:28.306Z,3.50
2019-05-28T02:07:59.226Z,2.97
2019-05-28T02:10:30.190Z,3.07
2019-05-28T02:13:01.203Z,3.40
2019-05-28T02:15:32.423Z,2.97
2019-05-28T02:18:03.478Z,3.40
2019-05-28T02:20:34.548Z,2.93
2019-05-28T02:23:05.570Z,3.17
2019-05-28T02:25:37.922Z,3.33
2019-05-28T02:28:09.022Z,3.50
2019-05-28T02:30:39.961Z,3.10
2019-05-28T02:33:11.060Z,3.37
2019-05-28T02:35:42.174Z,3.67
2019-05-28T02:38:13.567Z,3.20
2019-05-28T02:40:45.313Z,3.53
2019-05-28T02:43:16.286Z,3.63
2019-05-28T02:45:47.285Z,3.97
2019-05-28T02:48:18.292Z,3.57
2019-05-28T02:51:04.461Z,4.93
2019-05-28T02:53:36.613Z,4.13
2019-05-28T02:56:07.989Z,4.30
2019-05-28T02:58:39.076Z,4.73
2019-05-28T03:01:10.130Z,4.80
2019-05-28T03:03:43.255Z,5.07
2019-05-28T03:06:15.022Z,4.53
2019-05-28T03:08:48.843Z,5.23
2019-05-28T03:11:19.777Z,6.10
2019-05-28T03:13:50.845Z,5.53
2019-05-28T03:16:24.548Z,5.20
2019-05-28T03:18:58.415Z,5.50
2019-05-28T03:21:32.018Z,5.80
2019-05-28T03:24:05.172Z,5.17
2019-05-28T03:26:36.174Z,5.57
2019-05-28T03:29:18.776Z,5.70
2019-05-28T03:32:06.963Z,5.37
2019-05-28T03:34:22.425Z,4.87
2019-05-28T03:36:55.827Z,5.80
2019-05-28T03:39:28.734Z,5.43
2019-05-28T03:41:59.769Z,5.70
2019-05-28T03:44:31.140Z,4.63
2019-05-28T03:47:02.536Z,5.70
2019-05-28T03:49:33.521Z,5.63
2019-05-28T03:52:04.493Z,5.47
2019-05-28T03:54:35.434Z,5.97
2019-05-28T03:57:06.345Z,6.20
2019-05-28T03:59:37.253Z,5.43
2019-05-28T04:02:22.738Z,5.77
2019-05-28T04:04:41.060Z,6.03
2019-05-28T04:07:12.237Z,6.20
2019-05-28T04:09:43.579Z,5.67
2019-05-28T04:12:16.922Z,5.80
2019-05-28T04:14:51.138Z,5.53
2019-05-28T04:17:28.818Z,4.97
2019-05-28T04:20:02.906Z,6.00
2019-05-28T04:23:04.325Z,5.37
2019-05-28T04:25:36.875Z,6.33
2019-05-28T04:28:11.132Z,5.63
2019-05-28T04:30:45.717Z,5.73
2019-05-28T04:33:16.754Z,5.73
2019-05-28T04:35:47.805Z,6.20
2019-05-28T04:38:18.815Z,6.30
2019-05-28T04:41:00.348Z,6.33
2019-05-28T04:43:31.276Z,6.73
2019-05-28T04:46:03.733Z,6.73
2019-05-28T04:48:34.844Z,6.47
2019-05-28T04:51:07.863Z,6.03
2019-05-28T04:53:41.691Z,6.07
2019-05-28T04:56:14.919Z,6.70
2019-05-28T04:58:49.463Z,6.27
2019-05-28T05:01:30.439Z,6.00
2019-05-28T05:04:10.945Z,6.40
2019-05-28T05:06:41.990Z,6.30
2019-05-28T05:09:13.509Z,5.60
2019-05-28T05:11:46.301Z,6.20
2019-05-28T05:14:20.596Z,6.27
2019-05-28T05:16:56.864Z,6.00
2019-05-28T05:19:30.962Z,6.77
2019-05-28T05:22:02.331Z,6.67
2019-05-28T05:24:33.361Z,6.80
2019-05-28T05:27:04.406Z,7.20
2019-05-28T05:29:35.522Z,6.57
2019-05-28T05:32:06.457Z,7.17
2019-05-28T05:34:37.450Z,6.50
2019-05-28T05:37:08.999Z,7.03
2019-05-28T05:39:40.856Z,6.50
2019-05-28T05:42:11.959Z,7.77
2019-05-28T05:44:43.061Z,7.27
2019-05-28T05:47:14.047Z,8.17
2019-05-28T05:49:45.035Z,7.63
2019-05-28T05:52:16.403Z,7.40
2019-05-28T05:54:48.097Z,6.87
2019-05-28T05:57:19.133Z,7.47
2019-05-28T05:59:51.342Z,7.70
2019-05-28T06:02:22.385Z,6.90
2019-05-28T06:04:53.522Z,6.77
2019-05-28T06:07:25.117Z,6.33
2019-05-28T06:09:56.616Z,6.53
2019-05-28T06:12:28.072Z,7.10
2019-05-28T06:14:59.174Z,6.17
2019-05-28T06:17:30.200Z,6.20
2019-05-28T06:20:01.708Z,6.60
2019-05-28T06:22:33.514Z,6.60
2019-05-28T06:25:06.053Z,6.53
2019-05-28T06:27:37.340Z,6.60
2019-05-28T06:30:09.329Z,6.93
2019-05-28T06:32:41.511Z,6.77
2019-05-28T06:35:12.711Z,6.60
2019-05-28T06:37:43.710Z,5.70
2019-05-28T06:40:15.402Z,5.63
2019-05-28T06:42:46.329Z,5.90
2019-05-28T06:45:17.873Z,5.70
2019-05-28T06:47:49.571Z,6.03
2019-05-28T06:50:21.086Z,6.33
2019-05-28T06:52:52.293Z,6.30
2019-05-28T06:55:23.683Z,7.17
2019-05-28T06:57:54.854Z,7.47
2019-05-28T07:00:26.677Z,7.13
2019-05-28T07:02:57.663Z,6.70
2019-05-28T07:05:28.589Z,6.77
2019-05-28T07:07:59.595Z,7.10
2019-05-28T07:10:30.677Z,7.33
2019-05-28T07:13:01.711Z,6.73
2019-05-28T07:15:32.651Z,7.13
2019-05-28T07:18:03.602Z,7.03
2019-05-28T07:20:34.637Z,6.63
2019-05-28T07:23:05.920Z,7.50
2019-05-28T07:25:37.040Z,6.90
2019-05-28T07:28:11.570Z,6.23
2019-05-28T07:30:41.603Z,6.20
2019-05-28T07:33:12.944Z,7.97
2019-05-28T07:35:46.128Z,7.23
2019-05-28T07:38:16.578Z,5.20
2019-05-28T07:40:47.599Z,3.60
2019-05-28T07:43:18.625Z,3.00
2019-05-28T07:45:49.828Z,2.83
2019-05-28T07:48:20.746Z,2.50
2019-05-28T07:50:52.397Z,1.83
2019-05-28T07:53:38.406Z,1.87
2019-05-28T07:55:56.104Z,2.10
2019-05-28T07:58:27.199Z,1.80
2019-05-28T08:00:58.294Z,1.80
2019-05-28T08:03:30.672Z,2.30
2019-05-28T08:06:01.983Z,2.10
2019-05-28T08:08:33.377Z,2.30
2019-05-28T08:11:04.588Z,2.67
2019-05-28T08:13:40.582Z,2.50
2019-05-28T08:16:18.080Z,2.53
2019-05-28T08:18:41.061Z,2.77
2019-05-28T08:21:12.055Z,2.70
2019-05-28T08:23:42.978Z,2.13
2019-05-28T08:26:14.063Z,2.20
2019-05-28T08:28:44.986Z,2.50
2019-05-28T08:31:20.700Z,2.93
2019-05-28T08:33:48.956Z,2.43
2019-05-28T08:36:19.944Z,2.77
2019-05-28T08:38:50.898Z,2.60
2019-05-28T08:41:22.300Z,3.03
2019-05-28T08:43:53.297Z,2.67
2019-05-28T08:46:24.624Z,2.17
2019-05-28T08:48:55.542Z,2.63
2019-05-28T08:51:26.479Z,2.20
2019-05-28T08:53:57.519Z,2.03
2019-05-28T08:56:28.558Z,2.10
2019-05-28T08:58:59.642Z,1.97
2019-05-28T09:01:30.583Z,2.60
2019-05-28T09:04:01.654Z,2.43
2019-05-28T09:06:33.799Z,2.40
2019-05-28T09:09:06.587Z,2.50
2019-05-28T09:11:37.520Z,2.13
2019-05-28T09:14:08.531Z,2.50
2019-05-28T09:16:40.516Z,2.50
2019-05-28T09:19:11.441Z,2.13
2019-05-28T09:21:42.436Z,1.90
2019-05-28T09:24:13.436Z,2.20
2019-05-28T09:26:44.478Z,2.17
2019-05-28T09:29:16.213Z,2.27
2019-05-28T09:31:47.300Z,2.30
2019-05-28T09:34:18.235Z,2.53
2019-05-28T09:36:49.179Z,2.17
2019-05-28T09:39:20.484Z,2.80
2019-05-28T09:41:51.728Z,3.20
2019-05-28T09:44:23.000Z,2.97
2019-05-28T09:46:54.096Z,2.93
2019-05-28T09:49:25.295Z,3.43
2019-05-28T09:51:56.881Z,2.93
2019-05-28T09:54:29.046Z,2.90
2019-05-28T09:57:00.021Z,2.60
2019-05-28T09:59:41.043Z,2.47
2019-05-28T10:02:04.313Z,2.23
2019-05-28T10:04:48.058Z,2.00
2019-05-28T10:07:08.729Z,1.70
2019-05-28T10:09:39.741Z,2.10
2019-05-28T10:12:10.690Z,2.27
2019-05-28T10:14:44.302Z,1.90
2019-05-28T10:17:14.323Z,1.97
2019-05-28T10:19:45.306Z,2.37
2019-05-28T10:22:16.872Z,1.93
2019-05-28T10:24:47.846Z,1.60
2019-05-28T10:27:19.452Z,2.07
2019-05-28T10:29:50.618Z,2.33
2019-05-28T10:32:21.538Z,2.73
2019-05-28T10:35:03.094Z,2.23
2019-05-28T10:37:25.466Z,2.23
2019-05-28T10:39:56.467Z,2.37
2019-05-28T10:42:27.484Z,2.10
2019-05-28T10:44:58.485Z,2.73
2019-05-28T10:47:29.541Z,2.10
2019-05-28T10:50:00.567Z,2.40
2019-05-28T10:52:31.586Z,2.53
2019-05-28T10:55:03.023Z,2.80
2019-05-28T10:57:34.041Z,2.80
2019-05-28T11:00:06.114Z,2.40
2019-05-28T11:02:37.390Z,2.73
2019-05-28T11:05:09.491Z,2.60
2019-05-28T11:07:40.485Z,2.10
2019-05-28T11:10:23.762Z,2.70
2019-05-28T11:12:45.177Z,2.37
2019-05-28T11:15:17.842Z,2.37
2019-05-28T11:17:49.125Z,2.30
2019-05-28T11:20:21.767Z,1.90
2019-05-28T11:22:52.847Z,1.60
2019-05-28T11:25:24.609Z,1.57
2019-05-28T11:27:55.601Z,1.20
2019-05-28T11:30:26.809Z,1.13
2019-05-28T11:32:58.270Z,1.00
2019-05-28T11:35:29.289Z,0.97
2019-05-28T11:38:00.581Z,1.33
2019-05-28T11:40:34.341Z,1.20
2019-05-28T11:43:05.470Z,1.17
2019-05-28T11:45:36.378Z,1.40
2019-05-28T11:48:07.496Z,1.30
2019-05-28T11:50:38.904Z,1.30
2019-05-28T11:53:10.102Z,1.40
2019-05-28T11:55:41.369Z,1.70
2019-05-28T11:58:12.302Z,1.57
2019-05-28T12:00:43.355Z,1.70
2019-05-28T12:03:14.267Z,2.30
2019-05-28T12:05:45.176Z,2.50
2019-05-28T12:08:26.607Z,2.37
2019-05-28T12:10:58.938Z,2.33
2019-05-28T12:13:30.151Z,2.30
2019-05-28T12:16:01.096Z,2.17
2019-05-28T12:18:32.025Z,2.13
2019-05-28T12:21:04.595Z,2.50
2019-05-28T12:23:36.197Z,2.33
2019-05-28T12:26:07.159Z,3.33
2019-05-28T12:28:38.689Z,4.00
2019-05-28T12:31:09.943Z,4.10
2019-05-28T12:33:40.988Z,3.53
2019-05-28T12:36:12.097Z,4.07
2019-05-28T12:38:43.286Z,3.90
2019-05-28T12:41:14.238Z,3.33
2019-05-28T12:43:45.886Z,3.47
2019-05-28T12:46:16.980Z,3.50
2019-05-28T12:49:04.615Z,3.37
2019-05-28T12:51:40.708Z,3.00
2019-05-28T12:54:11.669Z,2.80
2019-05-28T12:56:42.708Z,2.90
2019-05-28T12:59:13.712Z,3.73
2019-05-28T13:01:44.656Z,3.40
2019-05-28T13:04:15.600Z,3.00
2019-05-28T13:06:46.859Z,3.30
2019-05-28T13:09:18.107Z,3.67
2019-05-28T13:11:49.073Z,3.80
2019-05-28T13:14:20.969Z,3.50
2019-05-28T13:16:52.457Z,3.60
2019-05-28T13:19:23.950Z,3.53
2019-05-28T13:21:54.956Z,2.77
2019-05-28T13:24:26.056Z,2.47
2019-05-28T13:26:57.071Z,2.23
2019-05-28T13:29:27.984Z,2.30
2019-05-28T13:31:59.361Z,2.30
2019-05-28T13:34:30.774Z,1.90
2019-05-28T13:37:02.244Z,1.90
2019-05-28T13:39:33.409Z,1.90
2019-05-28T13:42:05.112Z,1.50
2019-05-28T13:44:36.491Z,1.70
2019-05-28T13:47:07.493Z,1.77
2019-05-28T13:49:38.449Z,2.07
2019-05-28T13:52:12.366Z,2.50
2019-05-28T13:54:42.111Z,2.60
2019-05-28T13:57:13.098Z,2.60
2019-05-28T13:59:44.092Z,2.90
2019-05-28T14:02:15.581Z,2.70
2019-05-28T14:04:46.602Z,2.80
2019-05-28T14:07:17.677Z,2.70
2019-05-28T14:09:48.629Z,3.13
2019-05-28T14:12:19.575Z,2.97
2019-05-28T14:14:50.515Z,2.70
2019-05-28T14:17:21.879Z,2.80
2019-05-28T14:19:52.976Z,3.20
2019-05-28T14:22:33.473Z,3.37
2019-05-28T14:24:57.684Z,3.63
2019-05-28T14:27:28.676Z,3.47
2019-05-28T14:30:00.702Z,3.80
2019-05-28T14:32:32.589Z,3.63
2019-05-28T14:35:04.353Z,3.93
2019-05-28T14:37:35.410Z,3.43
2019-05-28T14:40:08.698Z,2.80
2019-05-28T14:42:40.057Z,2.40
2019-05-28T14:45:12.658Z,2.70
2019-05-28T14:47:44.266Z,2.90
2019-05-28T14:50:15.775Z,3.17
2019-05-28T14:52:46.812Z,3.33
2019-05-28T14:55:18.891Z,4.10
2019-05-28T14:57:50.397Z,2.80
2019-05-28T15:00:23.173Z,2.83
2019-05-28T15:02:54.150Z,2.70
2019-05-28T15:05:25.460Z,2.80
2019-05-28T15:07:56.664Z,2.73
2019-05-28T15:10:28.839Z,3.17
2019-05-28T15:13:00.384Z,3.50
2019-05-28T15:15:35.977Z,3.60
2019-05-28T15:18:04.343Z,3.33
2019-05-28T15:20:35.376Z,3.67
2019-05-28T15:23:06.463Z,3.60
2019-05-28T15:25:37.457Z,4.13
2019-05-28T15:28:08.438Z,4.10
2019-05-28T15:30:42.535Z,3.50
2019-05-28T15:33:12.261Z,4.07
2019-05-28T15:35:43.253Z,4.50
2019-05-28T15:38:14.639Z,4.20
2019-05-28T15:40:45.700Z,3.60
2019-05-28T15:43:17.530Z,4.00
2019-05-28T15:45:48.495Z,4.00
2019-05-28T15:48:19.533Z,4.30
2019-05-28T15:50:50.747Z,4.40
2019-05-28T15:53:21.802Z,4.10
2019-05-28T15:55:53.177Z,4.87
2019-05-28T15:58:24.401Z,4.50
2019-05-28T16:00:55.492Z,4.73
2019-05-28T16:03:26.573Z,4.53
2019-05-28T16:05:57.527Z,4.40
2019-05-28T16:08:28.600Z,4.63
2019-05-28T16:10:59.527Z,4.97
2019-05-28T16:13:30.535Z,4.47
2019-05-28T16:16:02.154Z,4.47
2019-05-28T16:18:33.151Z,4.37
2019-05-28T16:21:04.065Z,4.90
2019-05-28T16:23:36.080Z,5.23
2019-05-28T16:26:07.094Z,4.97
2019-05-28T16:28:38.093Z,5.03
2019-05-28T16:31:12.874Z,5.00
2019-05-28T16:33:41.991Z,4.67
2019-05-28T16:36:13.242Z,5.00
2019-05-28T16:38:44.595Z,5.03
2019-05-28T16:41:16.246Z,5.50
2019-05-28T16:43:47.208Z,4.63
2019-05-28T16:46:18.683Z,5.67
2019-05-28T16:48:49.808Z,4.80
2019-05-28T16:51:23.902Z,4.40
2019-05-28T16:53:55.004Z,4.13
2019-05-28T16:56:25.972Z,4.30
2019-05-28T16:58:56.896Z,4.43
2019-05-28T17:01:27.983Z,3.63
2019-05-28T17:03:59.083Z,4.10
2019-05-28T17:06:30.525Z,3.40
2019-05-28T17:09:01.546Z,3.77
2019-05-28T17:11:34.573Z,3.87
2019-05-28T17:14:05.943Z,4.23
2019-05-28T17:16:37.352Z,4.27
2019-05-28T17:19:08.550Z,4.30
2019-05-28T17:21:39.581Z,4.33
2019-05-28T17:24:11.032Z,5.20
2019-05-28T17:26:42.003Z,4.67
2019-05-28T17:29:14.737Z,5.23
2019-05-28T17:31:46.823Z,5.47
2019-05-28T17:34:17.807Z,5.47
2019-05-28T17:36:48.821Z,5.57
2019-05-28T17:39:19.920Z,5.27
2019-05-28T17:41:51.470Z,5.50
2019-05-28T17:44:22.653Z,5.47
2019-05-28T17:46:53.804Z,5.50
2019-05-28T17:49:24.723Z,4.73
2019-05-28T17:51:55.767Z,5.30
2019-05-28T17:54:26.756Z,4.83
2019-05-28T17:56:57.811Z,4.70
2019-05-28T17:59:28.867Z,4.83
2019-05-28T18:02:00.270Z,4.40
2019-05-28T18:04:32.675Z,4.67
2019-05-28T18:07:03.932Z,4.00
2019-05-28T18:09:35.009Z,4.30
2019-05-28T18:12:06.058Z,4.83
2019-05-28T18:14:37.333Z,4.90
2019-05-28T18:17:09.067Z,5.30
2019-05-28T18:19:40.052Z,5.10
2019-05-28T18:22:11.058Z,5.13
2019-05-28T18:24:42.086Z,5.40
2019-05-28T18:27:13.183Z,4.90
2019-05-28T18:29:44.504Z,4.63
2019-05-28T18:32:15.502Z,5.50
2019-05-28T18:34:46.990Z,5.37
2019-05-28T18:37:19.098Z,5.60
2019-05-28T18:39:50.503Z,5.30
2019-05-28T18:42:21.402Z,4.83
2019-05-28T18:44:52.410Z,5.50
2019-05-28T18:47:23.754Z,5.43
2019-05-28T18:49:57.254Z,5.57
2019-05-28T18:52:29.399Z,5.97
2019-05-28T18:55:00.541Z,6.13
2019-05-28T18:57:31.910Z,6.17
2019-05-28T19:00:04.143Z,7.33
2019-05-28T19:02:35.263Z,6.87
2019-05-28T19:05:06.981Z,7.27
2019-05-28T19:07:38.057Z,7.33
2019-05-28T19:10:09.386Z,7.47
2019-05-28T19:12:40.326Z,7.37
2019-05-28T19:15:12.842Z,7.97
2019-05-28T19:17:44.147Z,7.30
2019-05-28T19:20:15.542Z,7.03
2019-05-28T19:22:46.819Z,8.10
2019-05-28T19:25:18.094Z,9.20
2019-05-28T19:27:49.769Z,9.07
2019-05-28T19:30:40.852Z,9.40
2019-05-28T19:33:11.860Z,10.00
2019-05-28T19:35:43.233Z,9.03
2019-05-28T19:38:14.350Z,9.73
2019-05-28T19:40:45.494Z,9.53
2019-05-28T19:43:16.940Z,9.63
2019-05-28T19:45:47.989Z,10.93
2019-05-28T19:48:19.095Z,10.40
2019-05-28T19:50:50.195Z,10.30
2019-05-28T19:53:21.198Z,9.57
2019-05-28T19:55:52.329Z,9.20
2019-05-28T19:58:23.492Z,7.77
2019-05-28T20:00:54.907Z,7.90
2019-05-28T20:03:26.008Z,7.47
2019-05-28T20:05:57.033Z,7.00
2019-05-28T20:08:28.133Z,7.00
2019-05-28T20:10:59.479Z,6.70
2019-05-28T20:13:31.014Z,6.23
2019-05-28T20:16:02.465Z,6.33
2019-05-28T20:18:34.211Z,6.03
2019-05-28T20:21:05.363Z,5.57
2019-05-28T20:23:36.309Z,6.50
2019-05-28T20:26:07.263Z,6.10
2019-05-28T20:28:38.544Z,6.33
2019-05-28T20:31:10.412Z,5.57
2019-05-28T20:33:42.118Z,6.60
2019-05-28T20:36:14.311Z,6.30
2019-05-28T20:38:45.668Z,6.00
2019-05-28T20:41:16.783Z,6.40
2019-05-28T20:43:47.764Z,6.50
2019-05-28T20:46:19.111Z,5.97
2019-05-28T20:48:50.058Z,5.37
2019-05-28T20:51:22.119Z,5.70
2019-05-28T20:53:53.375Z,6.00
2019-05-28T20:56:24.893Z,5.93
2019-05-28T20:59:00.005Z,5.90
2019-05-28T21:01:29.654Z,5.83
2019-05-28T21:04:00.646Z,6.07
2019-05-28T21:06:33.426Z,5.63
2019-05-28T21:09:06.564Z,5.90
2019-05-28T21:11:37.622Z,6.73
2019-05-28T21:14:09.071Z,5.67
2019-05-28T21:16:40.389Z,5.90
2019-05-28T21:19:11.747Z,6.00
2019-05-28T21:21:42.801Z,5.80
2019-05-28T21:24:14.468Z,6.07
2019-05-28T21:26:46.571Z,6.77
2019-05-28T21:29:17.475Z,6.20
2019-05-28T21:31:48.640Z,6.13
2019-05-28T21:34:19.717Z,6.20
2019-05-28T21:36:50.920Z,6.77
2019-05-28T21:39:21.923Z,6.00
2019-05-28T21:41:56.011Z,7.03
2019-05-28T21:44:26.317Z,6.43
2019-05-28T21:46:58.374Z,6.27
2019-05-28T21:49:29.376Z,6.83
2019-05-28T21:52:00.853Z,6.73
2019-05-28T21:54:31.934Z,6.40
2019-05-28T21:57:03.633Z,6.17
2019-05-28T21:59:34.756Z,6.20
2019-05-28T22:02:06.096Z,5.67
2019-05-28T22:04:37.206Z,6.70
2019-05-28T22:07:08.304Z,6.90
2019-05-28T22:09:39.634Z,7.00
2019-05-28T22:12:11.066Z,6.17
2019-05-28T22:14:42.142Z,7.50
2019-05-28T22:17:13.895Z,6.83
2019-05-28T22:19:45.280Z,7.23
2019-05-28T22:22:16.532Z,7.60
2019-05-28T22:24:47.474Z,7.77
2019-05-28T22:27:18.467Z,7.70
2019-05-28T22:29:49.474Z,8.33
2019-05-28T22:32:20.492Z,8.03
2019-05-28T22:34:52.011Z,8.00
2019-05-28T22:37:24.350Z,8.03
2019-05-28T22:39:55.299Z,7.67
2019-05-28T22:42:26.237Z,8.10
2019-05-28T22:44:58.530Z,8.17
2019-05-28T22:47:29.857Z,8.10
2019-05-28T22:50:15.741Z,7.17
2019-05-28T22:52:34.441Z,7.23
2019-05-28T22:55:05.979Z,6.73
2019-05-28T22:57:37.639Z,7.70
2019-05-28T23:00:09.193Z,6.53
2019-05-28T23:02:40.191Z,7.50
2019-05-28T23:05:11.622Z,7.10
2019-05-28T23:07:42.989Z,7.73
2019-05-28T23:10:14.128Z,7.40
2019-05-28T23:12:45.529Z,6.80
2019-05-28T23:15:17.811Z,7.20
2019-05-28T23:17:48.793Z,7.27
2019-05-28T23:20:20.187Z,7.30
2019-05-28T23:22:51.491Z,7.07
2019-05-28T23:25:22.432Z,6.83
2019-05-28T23:27:53.782Z,7.00
2019-05-28T23:30:25.637Z,7.50
2019-05-28T23:32:57.137Z,7.27
2019-05-28T23:35:28.159Z,7.70
2019-05-28T23:37:59.112Z,7.53
2019-05-28T23:40:30.397Z,7.60
2019-05-28T23:43:01.593Z,6.77
2019-05-28T23:45:33.683Z,7.00
2019-05-28T23:48:10.815Z,6.83
2019-05-28T23:50:39.603Z,6.80
2019-05-28T23:53:11.685Z,6.30
2019-05-28T23:55:43.242Z,6.90
2019-05-28T23:58:14.242Z,6.37
